Airfield :
LOGIN :

Register | Disclaimer

   EN    FR    IT 

 










Legend :    VFR   Marginal VFR   IFR   Intensive IFR   Very Intensive IFR
Visi :
Ceiling :
>= 8 km
>= 3000ft
5 to 8 km
1000 to 3000 ft
1500m to 5 km
500 to 1000 ft
800 to 1500m
200 to 500 ft
< 800m
< 200 ft
Symbols :   Thunderstorms  Fog  Heavy snow  Heavy precipitations  Wind > 20 kt
SIGMETs :     Misc.  Thunderstorms  Icing  Turbulence  Mountain Waves  Volcanic Ashes






- Airport Elevation : 364 ft
- IATA code : FRA


EDDF - Frankfurt Int.

CURRENT METAR :
  • 250420Z AUTO 21005KT 1100 0500 R25R/1900N R25C/P2000N R25L/P2000N R18/0700N BCFG BKN002 12/12 Q1017 TEMPO 0500 FG

EXPIRED METARs :
  • 250350Z AUTO 23004KT 200V280 1100 0500 R25R/1600N R25C/P2000N R25L/P2000N R18/0700N BCFG BKN002 12/12 Q1017 TEMPO 1500
  • 250320Z AUTO 23003KT 180V280 1200 0700 R25R/1700D R25C/P2000N R25L/P2000N R18/0900U BCFG BKN002 12/12 Q1017 NOSIG
  • 250250Z AUTO VRB02KT 9000 1100 R25R/P2000N R25C/P2000N R25L/P2000N R18/P2000N BR BKN003 BKN010 11/11 Q1017 TEMPO SCT004
  • 250220Z AUTO 20003KT 9999 0450 R25R/P2000N R25C/P2000N R25L/P2000N R18/P2000N BCFG FEW003 SCT010 11/11 Q1017 NOSIG
  • 250150Z AUTO 19005KT 9999 2700 BR FEW009 12/12 Q1017 NOSIG
  • 250120Z AUTO 18005KT 9999 FEW004 12/12 Q1017 NOSIG
  • 250050Z AUTO 18003KT 150V210 9999 BKN005 12/12 Q1017 TEMPO SCT005
  • 250020Z AUTO VRB01KT 9999 VCSH SCT008 FEW///TCU 12/12 Q1017 TEMPO BKN008
  • 242350Z AUTO VRB02KT CAVOK 13/12 Q1017 NOSIG

TAF AMD TAF EDDF
Valid from the 25 at 03:00 until the 26 at 06:00 UTC


250346Z 2503/2606 18004KT 2500 BR BKN005
TEMPO 2503/2506 0600 FG BKN001
BECMG 2506/2508 9999 SCT025
PROB30
TEMPO 2512/2518 SHRA BKN030CB



MET'MAP, your aeronautical weather chart ! - Copyright ORBIFLY December 2007 - Disclaimer

ORBIFLY MET'MAP TEAM :

Programming & Development : Alexandra Zaïnal
Original concept : Baudouin d'Aumeries
Technical & hardware support : Manuel Goepfert
Assistance : Marc-Olivier Méhu




SOURCES & CREDITS :

   NOAA